Time;durP1;ratioP1;P1;durP2;ratioP2;P2;SDS_P1;SDS_P2;PMS_P1;PMS_P2;Temp;Humidity;BMP_temperature;BMP_pressure;BME280_temperature;BME280_humidity;BME280_pressure;Samples;Min_cycle;Max_cycle;Signal;HPM_P1;HPM_P2
2023/03/15 00:01:25;;;;;;;27.97;16.63;;;;;;;7.24;54.74;93689.38;6214061;23;20178;-81
2023/03/15 00:03:53;;;;;;;30.97;15.63;;;;;;;7.16;54.83;93687.09;6213599;23;20932;-80
2023/03/15 00:06:21;;;;;;;29.63;17.17;;;;;;;7.07;55.11;93684.03;6213412;23;20543;-81
2023/03/15 00:08:48;;;;;;;31.67;17.60;;;;;;;6.99;55.60;93675.81;6212839;23;20178;-82
2023/03/15 00:11:16;;;;;;;32.27;18.33;;;;;;;6.99;56.04;93668.84;6212805;23;20551;-84
2023/03/15 00:13:44;;;;;;;35.13;17.97;;;;;;;6.90;56.50;93656.50;6217571;23;20177;-84
2023/03/15 00:16:17;;;;;;;27.83;15.03;;;;;;;6.83;55.10;93682.41;6221511;23;20177;-82
2023/03/15 00:18:45;;;;;;;26.43;14.53;;;;;;;6.69;55.15;93686.16;6237844;23;20197;-82
2023/03/15 00:21:12;;;;;;;31.47;15.70;;;;;;;6.50;55.40;93664.72;6205210;23;20166;-82
2023/03/15 00:23:39;;;;;;;25.00;14.17;;;;;;;6.46;56.45;93675.72;6215398;23;20173;-83
2023/03/15 00:26:06;;;;;;;22.30;13.13;;;;;;;6.46;56.93;93670.56;6213360;23;20277;-83
2023/03/15 00:28:34;;;;;;;23.13;12.97;;;;;;;6.41;56.44;93644.59;6212520;23;20170;-83
2023/03/15 00:31:06;;;;;;;22.53;12.80;;;;;;;6.65;56.84;93672.09;6213256;23;20166;-84
2023/03/15 00:33:33;;;;;;;26.27;12.30;;;;;;;6.64;56.90;93660.19;6213140;23;20625;-83
2023/03/15 00:36:03;;;;;;;22.27;12.77;;;;;;;6.75;56.54;93656.88;6223735;23;20245;-84
2023/03/15 00:38:30;;;;;;;24.27;11.60;;;;;;;6.84;54.93;93663.28;6213308;23;20205;-83
2023/03/15 00:40:57;;;;;;;19.90;11.43;;;;;;;6.91;54.83;93664.00;6213143;23;20173;-84
2023/03/15 00:43:24;;;;;;;24.20;12.97;;;;;;;6.95;55.25;93664.34;6213079;23;20178;-83
2023/03/15 00:45:52;;;;;;;23.90;13.27;;;;;;;6.93;55.10;93666.34;6213794;23;20193;-84
2023/03/15 00:48:19;;;;;;;27.97;15.70;;;;;;;6.95;55.74;93656.63;6213453;23;20170;-82
2023/03/15 00:50:46;;;;;;;30.20;16.63;;;;;;;6.78;56.05;93625.47;6212944;23;20166;-82
2023/03/15 00:53:13;;;;;;;30.60;15.47;;;;;;;7.00;56.25;93644.63;6213091;23;20174;-82
2023/03/15 00:55:41;;;;;;;26.77;15.20;;;;;;;6.97;56.30;93636.50;6213270;23;20174;-82
2023/03/15 00:58:08;;;;;;;30.30;15.37;;;;;;;6.95;56.64;93625.63;6215844;23;20178;-83
2023/03/15 01:00:37;;;;;;;27.80;14.33;;;;;;;7.09;56.98;93645.88;6213068;23;20189;-82
2023/03/15 01:03:05;;;;;;;26.27;14.23;;;;;;;7.02;56.98;93629.66;6213299;23;20174;-81
2023/03/15 01:05:32;;;;;;;25.53;14.27;;;;;;;7.09;56.11;93632.16;6212213;23;20190;-81
2023/03/15 01:07:58;;;;;;;24.13;14.10;;;;;;;7.17;56.31;93631.84;6213270;23;20166;-82
2023/03/15 01:10:25;;;;;;;24.40;13.93;;;;;;;7.13;56.56;93628.91;6212793;23;20177;-82
2023/03/15 01:12:52;;;;;;;25.40;13.53;;;;;;;7.05;57.18;93618.09;6212946;23;20648;-83
2023/03/15 01:15:19;;;;;;;26.93;13.87;;;;;;;7.06;57.10;93624.84;6213013;23;20654;-83
2023/03/15 01:17:46;;;;;;;21.90;12.63;;;;;;;7.00;56.59;93610.25;6215927;23;20652;-82
2023/03/15 01:20:15;;;;;;;19.53;12.10;;;;;;;7.12;56.81;93623.97;6213464;23;20646;-79
2023/03/15 01:22:42;;;;;;;26.10;11.67;;;;;;;7.16;56.90;93625.09;6212894;23;20560;-81
2023/03/15 01:25:10;;;;;;;20.97;11.70;;;;;;;7.20;56.12;93613.31;6212902;23;20702;-80
2023/03/15 01:27:37;;;;;;;20.40;11.10;;;;;;;7.15;56.20;93592.53;6212186;23;20846;-80
2023/03/15 01:30:06;;;;;;;21.53;11.07;;;;;;;7.12;55.55;93587.81;6210841;23;20174;-79
2023/03/15 01:32:32;;;;;;;22.93;12.37;;;;;;;7.24;56.14;93598.94;6211549;23;20712;-79
2023/03/15 01:34:59;;;;;;;21.07;11.03;;;;;;;7.14;56.86;93591.75;6213039;23;20166;-81
2023/03/15 01:37:28;;;;;;;20.13;11.27;;;;;;;7.14;57.16;93603.88;6214802;23;20203;-83
2023/03/15 01:39:55;;;;;;;20.63;11.40;;;;;;;7.19;57.12;93601.41;6212860;23;20162;-82
2023/03/15 01:42:22;;;;;;;18.90;10.87;;;;;;;7.18;57.12;93597.25;6212565;23;20799;-83
2023/03/15 01:44:52;;;;;;;24.53;11.13;;;;;;;7.09;57.76;93583.09;6212744;23;20554;-82
2023/03/15 01:47:19;;;;;;;22.77;11.77;;;;;;;7.22;57.75;93601.75;6212775;23;20197;-82
2023/03/15 01:49:50;;;;;;;25.33;11.97;;;;;;;7.24;57.02;93596.38;6213328;23;20516;-82
2023/03/15 01:52:20;;;;;;;24.53;13.13;;;;;;;7.18;56.83;93579.19;6212903;23;20158;-81
2023/03/15 01:54:52;;;;;;;24.53;13.67;;;;;;;7.07;57.65;93567.03;6212985;23;20166;-82
2023/03/15 01:57:24;;;;;;;22.40;13.10;;;;;;;7.13;57.89;93576.47;6217984;23;20167;-83
2023/03/15 01:59:56;;;;;;;20.80;13.07;;;;;;;7.18;58.32;93582.56;6212335;23;20692;-84
2023/03/15 02:02:24;;;;;;;21.23;12.20;;;;;;;7.05;58.25;93558.69;6213088;23;20165;-81
2023/03/15 02:04:56;;;;;;;20.43;12.30;;;;;;;7.10;57.22;93564.78;6212819;23;20217;-82
2023/03/15 02:07:26;;;;;;;25.80;12.43;;;;;;;7.07;57.55;93552.31;6211764;23;20185;-81
2023/03/15 02:10:02;;;;;;;18.60;11.70;;;;;;;7.12;57.96;93557.59;6211626;23;20172;-81
2023/03/15 02:12:31;;;;;;;17.83;11.33;;;;;;;7.18;58.42;93566.25;6212727;23;20983;-85
2023/03/15 02:15:00;;;;;;;27.10;13.07;;;;;;;6.94;58.37;93513.78;6212759;23;20521;-85
2023/03/15 02:17:35;;;;;;;18.23;11.87;;;;;;;7.17;58.70;93555.13;6216486;23;20162;-84
2023/03/15 02:20:13;;;;;;;21.63;12.43;;;;;;;7.04;59.32;93544.25;6212211;23;20231;-86
2023/03/15 02:22:50;;;;;;;21.33;11.17;;;;;;;7.05;59.66;93546.59;6212812;23;20158;-85
2023/03/15 02:25:26;;;;;;;20.07;11.50;;;;;;;7.06;60.27;93544.78;6212281;23;20157;-84
2023/03/15 02:27:55;;;;;;;19.33;11.10;;;;;;;7.06;59.72;93542.22;6212261;23;20166;-83
2023/03/15 02:30:22;;;;;;;23.47;11.63;;;;;;;6.97;59.45;93536.59;6212414;23;20158;-85
2023/03/15 02:32:49;;;;;;;19.83;11.93;;;;;;;6.95;60.63;93535.25;6212803;23;20169;-84
2023/03/15 02:35:24;;;;;;;21.10;12.47;;;;;;;6.95;61.19;93536.03;6218371;23;20169;-85
2023/03/15 02:37:51;;;;;;;26.13;12.77;;;;;;;6.99;61.55;93542.31;6214414;23;20161;-84
2023/03/15 02:40:20;;;;;;;25.17;13.50;;;;;;;6.88;61.90;93540.50;6214321;23;20166;-84
2023/03/15 02:42:48;;;;;;;22.90;13.30;;;;;;;6.91;61.73;93550.38;6214223;23;20169;-83
2023/03/15 02:45:17;;;;;;;26.73;14.37;;;;;;;6.89;62.14;93543.88;6213879;23;20166;-84
2023/03/15 02:47:45;;;;;;;30.87;15.27;;;;;;;6.77;62.21;93524.00;6213303;23;20165;-85
2023/03/15 02:50:12;;;;;;;27.77;15.00;;;;;;;6.75;62.32;93525.22;6214291;23;20759;-85
2023/03/15 02:52:39;;;;;;;27.87;15.23;;;;;;;6.66;62.15;93523.97;6214615;23;20177;-83
2023/03/15 02:55:07;;;;;;;31.63;14.73;;;;;;;6.68;62.37;93532.28;6220103;23;20629;-82
2023/03/15 02:57:35;;;;;;;27.53;14.70;;;;;;;6.68;62.18;93527.91;6214288;23;20166;-82
2023/03/15 03:00:10;;;;;;;31.30;15.33;;;;;;;6.67;61.89;93523.72;6215047;23;20194;-82
2023/03/15 03:02:39;;;;;;;30.93;15.10;;;;;;;6.58;61.52;93522.47;6219262;23;20165;-82
2023/03/15 03:05:07;;;;;;;24.90;14.93;;;;;;;6.50;61.49;93516.84;6231926;23;20185;-82
2023/03/15 03:07:33;;;;;;;27.37;15.23;;;;;;;6.26;61.81;93497.97;6214508;23;20205;-83
2023/03/15 03:10:00;;;;;;;23.70;14.40;;;;;;;6.35;62.29;93496.63;6214331;23;20173;-84
2023/03/15 03:12:27;;;;;;;26.47;14.27;;;;;;;6.36;62.95;93505.16;6214209;23;20494;-83
2023/03/15 03:14:55;;;;;;;25.60;14.63;;;;;;;6.38;62.20;93508.31;6216186;23;20163;-83
2023/03/15 03:17:22;;;;;;;25.77;14.23;;;;;;;6.33;62.43;93501.22;6214088;23;20158;-82
2023/03/15 03:19:51;;;;;;;28.00;13.83;;;;;;;6.39;63.91;93508.09;6214117;23;20166;-82
2023/03/15 03:22:18;;;;;;;32.70;13.93;;;;;;;6.38;64.83;93503.16;6213743;23;20606;-82
2023/03/15 03:24:45;;;;;;;25.43;14.97;;;;;;;6.36;64.07;93500.78;6214259;23;20664;-81
2023/03/15 03:27:13;;;;;;;29.40;16.37;;;;;;;6.19;64.22;93487.72;6214167;23;20198;-82
2023/03/15 03:29:41;;;;;;;25.57;15.73;;;;;;;6.21;64.82;93493.44;6213884;23;20228;-83
2023/03/15 03:32:08;;;;;;;31.70;16.20;;;;;;;6.13;65.64;93486.03;6213981;23;20695;-82
2023/03/15 03:34:35;;;;;;;29.57;16.03;;;;;;;6.29;65.78;93497.53;6214380;23;20177;-80
2023/03/15 03:37:04;;;;;;;38.40;19.40;;;;;;;6.29;64.35;93490.53;6215786;23;20170;-80
2023/03/15 03:39:30;;;;;;;41.07;21.60;;;;;;;6.16;64.80;93471.91;6213711;23;20174;-80
2023/03/15 03:41:57;;;;;;;44.47;22.37;;;;;;;6.33;64.55;93479.78;6213866;23;20170;-80
2023/03/15 03:44:24;;;;;;;45.10;22.60;;;;;;;6.31;64.27;93474.88;6213986;23;20178;-80
2023/03/15 03:46:51;;;;;;;47.10;26.17;;;;;;;6.36;64.21;93477.56;6213767;23;20186;-81
2023/03/15 03:49:17;;;;;;;52.73;27.20;;;;;;;6.35;64.18;93482.94;6213773;23;20673;-81
2023/03/15 03:51:44;;;;;;;58.07;32.10;;;;;;;6.28;65.29;93483.84;6213921;23;20564;-82
2023/03/15 03:54:12;;;;;;;71.43;35.83;;;;;;;6.34;65.89;93483.94;6214360;23;20166;-82
2023/03/15 03:56:39;;;;;;;78.17;40.53;;;;;;;6.34;65.59;93465.91;6216226;23;20170;-81
2023/03/15 03:59:06;;;;;;;77.27;37.67;;;;;;;6.32;66.14;93470.50;6212764;23;20281;-82
2023/03/15 04:01:33;;;;;;;67.13;36.23;;;;;;;6.15;66.38;93450.47;6213642;23;20180;-81
2023/03/15 04:04:00;;;;;;;68.53;35.40;;;;;;;6.22;67.27;93460.72;6212162;23;20564;-82
2023/03/15 04:06:27;;;;;;;58.57;32.10;;;;;;;6.26;66.88;93454.88;6212051;23;20207;-82
2023/03/15 04:08:53;;;;;;;65.63;33.13;;;;;;;6.32;66.56;93453.19;6212886;23;20177;-82
2023/03/15 04:11:25;;;;;;;62.47;31.40;;;;;;;6.32;66.77;93452.44;6213423;23;20173;-82
2023/03/15 04:13:52;;;;;;;57.10;30.60;;;;;;;6.35;66.49;93457.16;6214571;23;20178;-81
2023/03/15 04:16:19;;;;;;;60.90;30.03;;;;;;;6.35;66.05;93452.00;6213144;23;20167;-80
2023/03/15 04:18:46;;;;;;;56.27;29.70;;;;;;;6.46;65.55;93456.38;6212655;23;20476;-79
2023/03/15 04:21:13;;;;;;;57.33;29.60;;;;;;;6.50;65.10;93463.44;6213207;23;20506;-79
2023/03/15 04:23:40;;;;;;;53.97;27.67;;;;;;;6.33;64.36;93448.84;6213052;23;20523;-83
2023/03/15 04:26:07;;;;;;;56.40;27.10;;;;;;;6.42;64.64;93460.41;6212862;23;20198;-82
2023/03/15 04:28:36;;;;;;;48.83;25.90;;;;;;;6.35;63.93;93455.34;6213358;23;20178;-82
2023/03/15 04:31:03;;;;;;;49.40;26.67;;;;;;;6.27;63.70;93455.66;6213378;23;20699;-83
2023/03/15 04:33:31;;;;;;;43.87;25.73;;;;;;;6.27;64.84;93451.28;6213866;23;20177;-82
2023/03/15 04:35:58;;;;;;;49.47;26.83;;;;;;;6.33;63.77;93452.22;6215191;23;20197;-83
2023/03/15 04:38:26;;;;;;;59.30;29.03;;;;;;;6.34;63.02;93455.56;6213443;23;20167;-81
2023/03/15 04:40:54;;;;;;;58.40;28.57;;;;;;;6.37;62.09;93444.81;6212795;23;20174;-82
2023/03/15 04:43:23;;;;;;;61.97;30.67;;;;;;;6.39;63.32;93451.31;6212829;23;20162;-81
2023/03/15 04:45:51;;;;;;;57.70;28.57;;;;;;;6.38;63.11;93442.00;6212865;23;20247;-82
2023/03/15 04:48:18;;;;;;;47.80;23.47;;;;;;;6.33;62.46;93452.22;6213049;23;20194;-84
2023/03/15 04:50:45;;;;;;;47.17;23.40;;;;;;;6.37;62.07;93455.94;6214531;23;20170;-84
2023/03/15 04:53:12;;;;;;;41.47;20.00;;;;;;;6.29;62.02;93440.78;6213905;23;20171;-83
2023/03/15 04:55:39;;;;;;;29.60;16.60;;;;;;;6.35;60.76;93449.41;6217532;23;20170;-82
2023/03/15 04:58:05;;;;;;;25.77;14.90;;;;;;;6.36;60.19;93445.81;6212601;23;20166;-82
2023/03/15 05:00:32;;;;;;;28.13;14.40;;;;;;;6.33;60.67;93430.78;6212621;23;20613;-82
2023/03/15 05:03:00;;;;;;;26.50;14.20;;;;;;;6.46;59.53;93443.50;6212327;23;20507;-82
2023/03/15 05:05:28;;;;;;;27.87;13.00;;;;;;;6.49;59.72;93448.22;6211695;23;20174;-80
2023/03/15 05:07:55;;;;;;;23.30;13.00;;;;;;;6.45;60.73;93453.03;6212438;23;20244;-82
2023/03/15 05:10:22;;;;;;;29.13;12.87;;;;;;;6.42;60.48;93450.88;6212306;23;20236;-81
2023/03/15 05:12:49;;;;;;;21.73;12.43;;;;;;;6.35;61.25;93452.75;6212738;23;20165;-78
2023/03/15 05:15:16;;;;;;;26.37;11.97;;;;;;;6.40;60.93;93452.13;6217312;23;20177;-83
2023/03/15 05:17:45;;;;;;;21.47;10.87;;;;;;;6.47;60.26;93453.56;6213388;23;20173;-81
2023/03/15 05:20:15;;;;;;;21.30;11.27;;;;;;;6.57;60.70;93460.78;6202269;23;20172;-81
2023/03/15 05:22:43;;;;;;;28.03;13.50;;;;;;;6.55;60.23;93435.19;6212022;23;20176;-83
2023/03/15 05:25:10;;;;;;;24.13;13.73;;;;;;;6.66;60.94;93446.53;6212353;23;20166;-81
2023/03/15 05:27:37;;;;;;;31.13;13.33;;;;;;;6.64;60.53;93440.78;6212372;23;20335;-82
2023/03/15 05:30:06;;;;;;;27.50;13.13;;;;;;;6.66;59.52;93446.53;6212210;23;21019;-82
2023/03/15 05:32:36;;;;;;;26.50;12.83;;;;;;;6.58;58.32;93428.81;6217651;23;20198;-82
2023/03/15 05:35:05;;;;;;;25.17;13.20;;;;;;;6.62;58.48;93425.53;6213489;23;20166;-81
2023/03/15 05:37:34;;;;;;;25.40;12.37;;;;;;;6.73;57.84;93435.09;6212460;23;20169;-82
2023/03/15 05:40:01;;;;;;;30.73;12.73;;;;;;;6.78;57.41;93437.78;6212895;23;20170;-82
2023/03/15 05:42:28;;;;;;;22.73;11.20;;;;;;;6.82;57.30;93444.06;6212793;23;20166;-83
2023/03/15 05:44:56;;;;;;;20.77;12.07;;;;;;;6.83;56.25;93421.63;6212415;23;20236;-82
2023/03/15 05:47:23;;;;;;;29.33;11.33;;;;;;;6.95;56.05;93443.06;6219380;23;20190;-81
2023/03/15 05:49:51;;;;;;;22.27;10.90;;;;;;;7.01;55.22;93428.47;6231969;23;20162;-82
2023/03/15 05:52:18;;;;;;;25.93;11.43;;;;;;;6.86;54.81;93390.19;6228686;23;20573;-81
2023/03/15 05:54:46;;;;;;;18.10;9.67;;;;;;;7.07;54.19;93432.72;6215985;23;20189;-83
2023/03/15 05:57:13;;;;;;;23.40;9.90;;;;;;;7.09;54.32;93439.22;6213392;23;20166;-81
2023/03/15 05:59:39;;;;;;;18.63;9.30;;;;;;;7.12;54.04;93436.19;6212046;23;20245;-81
2023/03/15 06:02:07;;;;;;;21.63;9.07;;;;;;;7.10;53.36;93427.13;6212150;23;20170;-80
2023/03/15 06:04:35;;;;;;;14.90;8.07;;;;;;;7.12;53.59;93428.44;6210654;23;20174;-80
2023/03/15 06:07:01;;;;;;;19.93;7.30;;;;;;;7.24;52.41;93449.09;6210353;23;20186;-82
2023/03/15 06:09:28;;;;;;;16.57;7.30;;;;;;;7.25;52.71;93440.31;6212352;23;20166;-80
2023/03/15 06:11:57;;;;;;;15.67;8.00;;;;;;;7.31;51.76;93432.44;6213385;23;20175;-81
2023/03/15 06:14:24;;;;;;;11.43;7.47;;;;;;;7.41;51.20;93443.00;6212628;23;20166;-83
2023/03/15 06:16:51;;;;;;;15.60;7.90;;;;;;;7.44;51.02;93429.59;6212790;23;20162;-80
2023/03/15 06:19:20;;;;;;;19.20;7.80;;;;;;;7.58;51.21;93442.28;6215927;23;20158;-81
2023/03/15 06:21:46;;;;;;;19.50;6.97;;;;;;;7.61;51.09;93445.19;6211900;23;20225;-82
2023/03/15 06:24:14;;;;;;;9.90;6.10;;;;;;;7.58;49.71;93439.69;6212027;23;20177;-82
2023/03/15 06:26:40;;;;;;;14.33;6.53;;;;;;;7.65;49.33;93454.06;6212721;23;20166;-81
2023/03/15 06:29:09;;;;;;;14.73;6.57;;;;;;;7.71;48.97;93449.75;6212308;23;20520;-80
2023/03/15 06:31:35;;;;;;;14.53;6.17;;;;;;;7.73;49.20;93445.16;6212887;23;20541;-82
2023/03/15 06:34:02;;;;;;;18.70;6.53;;;;;;;7.78;49.16;93445.25;6212366;23;20166;-81
2023/03/15 06:36:30;;;;;;;9.43;5.87;;;;;;;7.75;48.92;93428.41;6212321;23;20158;-82
2023/03/15 06:38:57;;;;;;;14.50;6.23;;;;;;;7.90;48.47;93423.50;6212133;23;20218;-82
2023/03/15 06:41:24;;;;;;;12.13;6.67;;;;;;;7.91;48.76;93426.88;6210755;23;20167;-81
2023/03/15 06:43:50;;;;;;;18.03;6.43;;;;;;;7.96;47.49;93439.91;6211780;23;20166;-81
2023/03/15 06:46:19;;;;;;;13.57;7.23;;;;;;;7.99;47.73;93436.84;6219338;23;20170;-80
2023/03/15 06:48:45;;;;;;;11.60;6.43;;;;;;;7.93;48.27;93430.03;6212481;23;20252;-81
2023/03/15 06:51:12;;;;;;;10.97;6.80;;;;;;;7.94;48.27;93427.19;6212494;23;20171;-81
2023/03/15 06:53:39;;;;;;;12.47;5.80;;;;;;;7.96;47.79;93421.81;6212504;23;20256;-81
2023/03/15 06:56:06;;;;;;;17.97;7.40;;;;;;;7.99;47.66;93432.44;6212300;23;20812;-81
2023/03/15 06:58:33;;;;;;;10.33;6.60;;;;;;;8.10;48.17;93435.22;6212136;23;20208;-81
2023/03/15 07:01:00;;;;;;;10.50;6.33;;;;;;;8.15;47.51;93430.13;6212261;23;20173;-80
2023/03/15 07:03:28;;;;;;;14.13;7.30;;;;;;;8.18;47.97;93419.31;6212450;23;20167;-81
2023/03/15 07:05:55;;;;;;;14.93;6.93;;;;;;;8.31;47.51;93425.00;6212057;23;20201;-81
2023/03/15 07:08:23;;;;;;;14.93;6.80;;;;;;;8.40;47.69;93425.41;6212503;23;20194;-81
2023/03/15 07:10:50;;;;;;;19.83;7.40;;;;;;;8.48;46.86;93430.22;6212112;23;20166;-81
2023/03/15 07:13:17;;;;;;;14.47;7.60;;;;;;;8.49;47.20;93424.00;6212484;23;20244;-81
2023/03/15 07:15:44;;;;;;;18.30;7.57;;;;;;;8.49;47.41;93414.44;6212653;23;20170;-82
2023/03/15 07:18:11;;;;;;;18.50;7.50;;;;;;;8.52;46.69;93426.91;6215754;23;20163;-81
2023/03/15 07:20:39;;;;;;;16.73;7.60;;;;;;;8.70;46.32;93423.28;6218835;23;20178;-82
2023/03/15 07:23:06;;;;;;;21.53;9.57;;;;;;;8.79;46.82;93424.47;6217860;23;20174;-81
2023/03/15 07:25:33;;;;;;;11.00;7.07;;;;;;;8.68;46.30;93427.94;6220793;23;20511;-82
2023/03/15 07:28:00;;;;;;;24.10;8.07;;;;;;;8.64;46.08;93431.22;6227310;23;20216;-80
2023/03/15 07:30:26;;;;;;;19.23;8.20;;;;;;;8.64;45.55;93434.59;6228106;23;20181;-81
2023/03/15 07:32:53;;;;;;;17.40;7.00;;;;;;;8.64;46.48;93437.19;6227484;23;20205;-82
2023/03/15 07:35:20;;;;;;;14.10;6.90;;;;;;;8.67;46.56;93423.75;6224802;23;20170;-82
2023/03/15 07:37:48;;;;;;;16.13;7.57;;;;;;;8.77;45.98;93405.00;6226640;23;20193;-82
2023/03/15 07:40:15;;;;;;;15.70;7.83;;;;;;;8.87;45.72;93412.91;6219716;23;20166;-81
2023/03/15 07:42:42;;;;;;;13.20;7.90;;;;;;;8.82;46.39;93418.03;6218256;23;20178;-79
2023/03/15 07:45:10;;;;;;;17.50;7.87;;;;;;;8.95;46.13;93418.47;6216742;23;20162;-79
2023/03/15 07:47:37;;;;;;;16.00;7.50;;;;;;;9.15;45.67;93432.75;6214763;23;20205;-80
2023/03/15 07:50:04;;;;;;;18.27;7.30;;;;;;;9.20;45.54;93420.63;6215607;23;20228;-81
2023/03/15 07:52:31;;;;;;;19.40;7.67;;;;;;;9.34;44.96;93421.06;6213945;23;20173;-80
2023/03/15 07:54:59;;;;;;;16.13;7.60;;;;;;;9.43;44.79;93409.25;6213411;23;20620;-80
2023/03/15 07:57:26;;;;;;;17.60;8.57;;;;;;;9.44;44.97;93409.00;6213461;23;20173;-80
2023/03/15 07:59:53;;;;;;;18.20;8.90;;;;;;;9.36;45.22;93393.88;6212662;23;20201;-81
2023/03/15 08:02:20;;;;;;;13.30;7.40;;;;;;;9.57;45.55;93405.28;6212647;23;20166;-81
2023/03/15 08:04:49;;;;;;;12.10;7.27;;;;;;;9.50;45.04;93404.66;6212318;23;20166;-79
2023/03/15 08:07:16;;;;;;;10.90;7.30;;;;;;;9.45;45.48;93396.81;6213207;23;20198;-81
2023/03/15 08:09:43;;;;;;;11.33;6.53;;;;;;;9.50;45.24;93387.28;6213512;23;20174;-80
2023/03/15 08:12:12;;;;;;;17.47;7.03;;;;;;;9.74;45.84;93413.75;6215948;23;20197;-79
2023/03/15 08:14:38;;;;;;;13.23;5.87;;;;;;;9.68;44.28;93406.94;6213695;23;20177;-81
2023/03/15 08:17:05;;;;;;;11.77;5.80;;;;;;;9.80;46.00;93394.63;6213448;23;20174;-81
2023/03/15 08:19:32;;;;;;;12.03;5.47;;;;;;;9.89;44.95;93376.81;6212954;23;20166;-79
2023/03/15 08:21:59;;;;;;;12.37;5.67;;;;;;;9.87;44.66;93386.66;6212971;23;20170;-81
2023/03/15 08:24:26;;;;;;;12.77;5.80;;;;;;;10.02;44.03;93392.75;6212747;23;20648;-80
2023/03/15 08:26:53;;;;;;;11.50;5.77;;;;;;;10.21;43.70;93401.03;6212921;23;20228;-80
2023/03/15 08:29:21;;;;;;;16.37;5.70;;;;;;;10.37;44.06;93396.72;6212798;23;20190;-81
2023/03/15 08:31:48;;;;;;;13.17;5.70;;;;;;;10.38;43.72;93386.13;6212870;23;20166;-81
2023/03/15 08:34:15;;;;;;;13.90;5.33;;;;;;;10.42;43.61;93392.38;6212403;23;20170;-79
2023/03/15 08:36:41;;;;;;;10.80;5.20;;;;;;;10.47;43.66;93374.25;6218249;23;20193;-83
2023/03/15 08:39:08;;;;;;;12.27;5.07;;;;;;;10.61;44.82;93380.56;6215143;23;20162;-82
2023/03/15 08:41:35;;;;;;;10.30;5.23;;;;;;;10.76;43.20;93383.25;6228261;23;20176;-82
2023/03/15 08:44:02;;;;;;;11.20;5.33;;;;;;;10.84;44.15;93387.22;6220638;23;20170;-82
2023/03/15 08:46:31;;;;;;;10.33;5.17;;;;;;;11.01;42.71;93377.44;6214023;23;20222;-81
2023/03/15 08:48:58;;;;;;;9.83;5.80;;;;;;;11.14;42.67;93376.22;6213376;23;20201;-83
2023/03/15 08:51:25;;;;;;;11.77;5.57;;;;;;;11.08;42.83;93367.59;6213049;23;20170;-83
2023/03/15 08:53:52;;;;;;;13.53;5.60;;;;;;;11.26;41.49;93387.19;6213646;23;20163;-82
2023/03/15 08:56:19;;;;;;;10.87;5.70;;;;;;;11.28;42.65;93383.28;6215130;23;20188;-83
2023/03/15 08:58:47;;;;;;;16.13;5.67;;;;;;;11.36;42.61;93382.84;6217544;23;20224;-84
2023/03/15 09:01:14;;;;;;;9.73;5.90;;;;;;;11.44;43.35;93389.34;6213397;23;20253;-84
2023/03/15 09:03:43;;;;;;;12.40;5.97;;;;;;;11.50;44.09;93382.34;6212887;23;20170;-83
2023/03/15 09:06:09;;;;;;;10.73;6.33;;;;;;;11.55;42.76;93379.75;6212907;23;20162;-83
2023/03/15 09:08:37;;;;;;;14.23;6.50;;;;;;;11.56;43.32;93366.50;6212835;23;20197;-83
2023/03/15 09:11:03;;;;;;;13.63;6.30;;;;;;;11.78;43.29;93389.75;6212934;23;20170;-82
2023/03/15 09:13:30;;;;;;;11.60;5.97;;;;;;;11.85;43.55;93379.91;6213516;23;20166;-84
2023/03/15 09:15:57;;;;;;;9.50;5.70;;;;;;;11.85;42.70;93387.72;6213766;23;20248;-84
2023/03/15 09:18:25;;;;;;;13.07;5.53;;;;;;;11.71;42.88;93376.22;6212777;23;20170;-83
2023/03/15 09:20:53;;;;;;;12.77;6.43;;;;;;;11.71;43.58;93378.81;6211341;23;20159;-83
2023/03/15 09:23:20;;;;;;;12.67;6.50;;;;;;;11.69;44.43;93392.06;6211685;23;20177;-84
2023/03/15 09:25:47;;;;;;;11.10;5.83;;;;;;;11.57;43.07;93385.50;6213304;23;20873;-80
2023/03/15 09:28:15;;;;;;;14.47;6.63;;;;;;;11.62;43.27;93386.31;6212960;23;20221;-82
2023/03/15 09:30:42;;;;;;;11.87;5.83;;;;;;;11.67;43.24;93382.94;6213424;23;20638;-81
2023/03/15 09:33:13;;;;;;;15.63;6.40;;;;;;;11.51;43.24;93373.53;6213178;23;20177;-82
2023/03/15 09:35:40;;;;;;;17.60;6.17;;;;;;;11.71;42.67;93384.81;6213539;23;20162;-82
2023/03/15 09:38:09;;;;;;;10.83;5.83;;;;;;;11.87;42.76;93367.41;6212058;23;20208;-82
2023/03/15 09:40:41;;;;;;;12.97;6.73;;;;;;;11.96;42.86;93368.47;6213209;23;20179;-83
2023/03/15 09:43:30;;;;;;;12.37;6.70;;;;;;;12.12;42.89;93366.69;6213045;23;20225;-82
2023/03/15 09:46:09;;;;;;;10.90;6.30;;;;;;;12.47;42.43;93372.69;6213132;23;20162;-82
2023/03/15 09:48:41;;;;;;;11.80;5.90;;;;;;;12.51;42.01;93371.13;6212364;23;20178;-83
2023/03/15 09:51:13;;;;;;;18.10;6.80;;;;;;;12.47;41.58;93357.03;6212544;23;20640;-83
2023/03/15 09:53:47;;;;;;;12.03;6.70;;;;;;;12.22;41.75;93349.22;6213238;23;20162;-82
2023/03/15 09:56:23;;;;;;;9.57;6.30;;;;;;;12.05;42.05;93338.28;6201684;23;20154;-83
2023/03/15 09:58:52;;;;;;;15.10;6.23;;;;;;;12.04;42.50;93339.31;6212781;23;20513;-81
2023/03/15 10:01:21;;;;;;;10.00;6.00;;;;;;;12.00;42.30;93345.31;6210842;23;20235;-81
2023/03/15 10:03:50;;;;;;;10.90;6.20;;;;;;;11.84;42.84;93355.69;6214559;23;20177;-81
2023/03/15 10:06:21;;;;;;;14.57;5.97;;;;;;;11.74;42.47;93355.69;6211537;23;20181;-81
2023/03/15 10:08:54;;;;;;;10.30;5.83;;;;;;;11.73;43.08;93364.50;6211965;23;20200;-80
2023/03/15 10:11:27;;;;;;;13.33;6.20;;;;;;;11.77;42.84;93359.59;6211132;23;20207;-81
2023/03/15 10:14:06;;;;;;;12.37;5.77;;;;;;;11.96;43.36;93365.88;6212480;23;20725;-81
2023/03/15 10:16:40;;;;;;;12.20;5.60;;;;;;;11.85;42.87;93354.66;6212170;23;20166;-81
2023/03/15 10:19:16;;;;;;;11.13;6.20;;;;;;;11.94;42.96;93355.72;6211858;23;20162;-81
2023/03/15 10:21:52;;;;;;;12.80;6.10;;;;;;;12.22;42.79;93356.25;6212728;23;20582;-80
2023/03/15 10:24:28;;;;;;;10.77;6.37;;;;;;;12.56;42.01;93357.31;6216636;23;20173;-80
2023/03/15 10:26:58;;;;;;;16.13;5.87;;;;;;;12.70;41.62;93355.72;6212573;23;20620;-81
2023/03/15 10:29:27;;;;;;;13.03;6.20;;;;;;;12.87;40.93;93352.84;6211591;23;20178;-81
2023/03/15 10:31:55;;;;;;;13.93;6.27;;;;;;;12.55;41.36;93347.94;6212084;23;20166;-81
2023/03/15 10:34:24;;;;;;;9.97;5.60;;;;;;;12.37;41.70;93341.44;6211657;23;20174;-82
2023/03/15 10:36:53;;;;;;;13.57;6.40;;;;;;;12.50;41.68;93343.50;6212525;23;20167;-81
2023/03/15 10:39:22;;;;;;;10.13;6.37;;;;;;;12.44;41.75;93341.94;6209050;23;20517;-84
2023/03/15 10:41:50;;;;;;;12.33;6.60;;;;;;;12.40;42.51;93353.16;6209846;23;20166;-83
2023/03/15 10:44:20;;;;;;;13.37;6.43;;;;;;;12.18;42.43;93347.41;6210661;23;20168;-82
2023/03/15 10:47:02;;;;;;;10.53;6.20;;;;;;;12.24;42.74;93351.56;6211769;23;20224;-82
2023/03/15 10:49:36;;;;;;;11.10;6.50;;;;;;;12.27;42.36;93351.84;6214361;23;20178;-82
2023/03/15 10:52:04;;;;;;;10.83;6.43;;;;;;;12.29;42.27;93335.97;6212570;23;20170;-82
2023/03/15 10:54:34;;;;;;;12.87;6.80;;;;;;;12.27;42.55;93345.84;6211881;23;20171;-82
2023/03/15 10:57:03;;;;;;;9.80;6.60;;;;;;;12.28;42.43;93343.00;6213344;23;20163;-80
2023/03/15 10:59:32;;;;;;;14.77;7.63;;;;;;;12.29;42.45;93352.38;6213917;23;20198;-83
2023/03/15 11:02:21;;;;;;;10.87;6.77;;;;;;;12.17;42.40;93338.03;6212741;23;20174;-79
2023/03/15 11:04:51;;;;;;;18.40;7.53;;;;;;;12.16;42.22;93333.84;6213564;23;20249;-82
2023/03/15 11:07:17;;;;;;;10.97;6.27;;;;;;;12.17;42.25;93340.63;6213993;23;20198;-82
2023/03/15 11:09:52;;;;;;;13.37;5.77;;;;;;;12.18;42.56;93335.16;6214063;23;20194;-82
2023/03/15 11:12:24;;;;;;;22.97;8.83;;;;;;;12.19;42.73;93335.94;6216570;23;20664;-82
2023/03/15 11:14:59;;;;;;;24.80;9.97;;;;;;;12.20;42.79;93332.31;6211725;23;20216;-82
2023/03/15 11:17:28;;;;;;;30.80;13.03;;;;;;;12.12;42.83;93338.78;6213919;23;20165;-82
2023/03/15 11:19:58;;;;;;;16.97;7.10;;;;;;;12.22;42.73;93327.59;6213710;23;20162;-81
2023/03/15 11:22:25;;;;;;;14.47;6.90;;;;;;;12.17;42.35;93331.00;6213465;23;20168;-81
2023/03/15 11:24:54;;;;;;;14.10;6.50;;;;;;;12.13;42.65;93331.75;6213704;23;20170;-81
2023/03/15 11:27:23;;;;;;;11.67;5.93;;;;;;;12.16;43.03;93333.84;6214077;23;20170;-81
2023/03/15 11:29:52;;;;;;;12.80;6.63;;;;;;;12.08;42.51;93342.97;6213455;23;20221;-82
2023/03/15 11:32:21;;;;;;;11.40;6.50;;;;;;;12.08;42.49;93340.38;6213493;23;20174;-81